Ivanhoe Post Office, Australia
Current Conditions -  °F | °C
As of 9:00 PM on Saturday 25 Oct 2014 (Local Time) from YGTH Reporting Station
Clear Clear  
Wind Chill: 82°   Ceiling: Unl
Heat Index: 82°   Visibility: 6mi
Dew Point: 45°   Wind: 7mph
Humidity: 26%   Direction: 300°WNW
Pressure: 29.83"   Gusts: NA
Location:  32.9°S, 144.28°E
Report Text: YGTH 251000Z AUTO 30006KT 9999 // NCD 28/07 Q1010
Loading
Personal Weather Stations






























Interactive Weather Map
Tropical Storm Tracking
New forecast layout! Learn more

10-Day Weather Forecast

Advertisements
Track Severe Weather on mobile